createdAt,value
2019-01-30T00:00:51.222Z,7.17
2019-01-30T00:03:20.210Z,9.87
2019-01-30T00:05:49.197Z,7.20
2019-01-30T00:08:18.022Z,7.20
2019-01-30T00:10:46.868Z,8.40
2019-01-30T00:13:15.787Z,8.60
2019-01-30T00:15:44.681Z,6.17
2019-01-30T00:18:13.613Z,8.13
2019-01-30T00:20:42.544Z,8.03
2019-01-30T00:23:11.447Z,7.93
2019-01-30T00:25:40.263Z,8.67
2019-01-30T00:28:09.235Z,8.30
2019-01-30T00:30:38.138Z,7.03
2019-01-30T00:33:07.118Z,10.00
2019-01-30T00:35:36.155Z,9.27
2019-01-30T00:38:05.166Z,9.70
2019-01-30T00:40:34.137Z,6.30
2019-01-30T00:43:03.138Z,7.87
2019-01-30T00:45:32.003Z,8.53
2019-01-30T00:48:00.888Z,6.57
2019-01-30T00:50:29.879Z,10.10
2019-01-30T00:52:58.797Z,9.43
2019-01-30T00:55:27.814Z,7.00
2019-01-30T00:57:56.730Z,10.97
2019-01-30T01:00:25.938Z,7.40
2019-01-30T01:02:54.949Z,7.87
2019-01-30T01:05:23.942Z,11.33
2019-01-30T01:07:53.024Z,16.00
2019-01-30T01:10:22.210Z,8.20
2019-01-30T01:12:51.279Z,8.70
2019-01-30T01:15:20.254Z,7.83
2019-01-30T01:17:49.187Z,6.80
2019-01-30T01:20:18.277Z,5.70
2019-01-30T01:22:47.241Z,7.70
2019-01-30T01:25:16.560Z,8.30
2019-01-30T01:27:45.860Z,8.77
2019-01-30T01:30:24.876Z,8.03
2019-01-30T01:32:48.490Z,7.67
2019-01-30T01:35:17.492Z,10.13
2019-01-30T01:37:46.421Z,9.33
2019-01-30T01:40:15.830Z,13.80
2019-01-30T01:42:44.743Z,9.23
2019-01-30T01:45:15.935Z,7.33
2019-01-30T01:47:44.912Z,8.23
2019-01-30T01:50:15.901Z,13.93
2019-01-30T01:52:44.899Z,11.83
2019-01-30T01:55:13.885Z,8.80
2019-01-30T01:57:43.000Z,9.20
2019-01-30T02:00:14.563Z,8.53
2019-01-30T02:02:43.516Z,9.30
2019-01-30T02:05:14.731Z,7.03
2019-01-30T02:07:43.705Z,8.80
2019-01-30T02:10:14.843Z,10.07
2019-01-30T02:12:43.821Z,12.43
2019-01-30T02:15:14.783Z,11.83
2019-01-30T02:17:43.690Z,11.53
2019-01-30T02:20:15.567Z,9.87
2019-01-30T02:22:44.505Z,8.20
2019-01-30T02:25:13.869Z,10.70
2019-01-30T02:27:42.722Z,7.80
2019-01-30T02:30:17.084Z,7.67
2019-01-30T02:32:46.043Z,9.83
2019-01-30T02:35:15.102Z,9.10
2019-01-30T02:37:43.939Z,11.77
2019-01-30T02:40:14.693Z,9.47
2019-01-30T02:42:43.615Z,8.37
2019-01-30T02:45:14.369Z,8.00
2019-01-30T02:47:43.351Z,8.90
2019-01-30T02:50:14.298Z,9.43
2019-01-30T02:52:43.396Z,7.80
2019-01-30T02:55:13.517Z,9.43
2019-01-30T02:57:42.530Z,10.80
2019-01-30T03:00:16.465Z,9.50
2019-01-30T03:02:45.335Z,9.37
2019-01-30T03:05:14.461Z,10.23
2019-01-30T03:07:43.441Z,15.13
2019-01-30T03:10:31.534Z,9.70
2019-01-30T03:13:00.431Z,8.97
2019-01-30T03:15:29.349Z,9.97
2019-01-30T03:17:58.317Z,9.40
2019-01-30T03:20:27.387Z,10.40
2019-01-30T03:22:56.303Z,10.20
2019-01-30T03:25:25.551Z,10.03
2019-01-30T03:27:54.734Z,10.80
2019-01-30T03:30:28.350Z,14.63
2019-01-30T03:32:57.339Z,12.70
2019-01-30T03:35:26.282Z,11.03
2019-01-30T03:37:55.178Z,9.57
2019-01-30T03:40:24.652Z,13.40
2019-01-30T03:42:53.557Z,11.53
2019-01-30T03:45:23.518Z,10.30
2019-01-30T03:47:52.479Z,10.53
2019-01-30T03:50:21.468Z,16.07
2019-01-30T03:52:50.569Z,13.10
2019-01-30T03:55:19.632Z,8.83
2019-01-30T03:57:48.664Z,15.67
2019-01-30T04:00:22.789Z,12.07
2019-01-30T04:02:52.154Z,13.50
2019-01-30T04:05:21.126Z,10.70
2019-01-30T04:07:50.028Z,10.80
2019-01-30T04:10:20.572Z,13.93
2019-01-30T04:12:49.703Z,11.10
2019-01-30T04:15:18.802Z,14.90
2019-01-30T04:17:47.764Z,14.10
2019-01-30T04:20:18.335Z,13.10
2019-01-30T04:22:47.300Z,11.63
2019-01-30T04:25:16.257Z,14.90
2019-01-30T04:27:45.128Z,12.63
2019-01-30T04:30:16.732Z,12.47
2019-01-30T04:32:45.630Z,13.03
2019-01-30T04:35:14.708Z,11.73
2019-01-30T04:37:43.630Z,13.30
2019-01-30T04:40:15.066Z,13.47
2019-01-30T04:42:43.984Z,11.07
2019-01-30T04:45:15.382Z,10.37
2019-01-30T04:47:44.265Z,10.37
2019-01-30T04:50:13.258Z,13.00
2019-01-30T04:52:42.228Z,12.87
2019-01-30T04:55:11.583Z,12.70
2019-01-30T04:57:40.413Z,11.23
2019-01-30T05:00:11.231Z,12.67
2019-01-30T05:02:40.123Z,13.33
2019-01-30T05:05:09.844Z,15.23
2019-01-30T05:07:38.997Z,13.60
2019-01-30T05:10:08.678Z,12.70
2019-01-30T05:12:37.592Z,14.33
2019-01-30T05:15:09.023Z,13.93
2019-01-30T05:17:37.844Z,13.07
2019-01-30T05:20:09.616Z,17.43
2019-01-30T05:22:38.448Z,15.40
2019-01-30T05:25:07.619Z,13.20
2019-01-30T05:27:36.503Z,13.70
2019-01-30T05:30:09.164Z,15.03
2019-01-30T05:32:37.988Z,15.93
2019-01-30T05:35:07.364Z,14.50
2019-01-30T05:37:36.218Z,18.63
2019-01-30T05:40:06.825Z,16.33
2019-01-30T05:42:35.800Z,14.53
2019-01-30T05:45:05.483Z,15.93
2019-01-30T05:47:34.315Z,12.20
2019-01-30T05:50:03.296Z,20.90
2019-01-30T05:52:32.195Z,12.77
2019-01-30T05:55:01.022Z,14.60
2019-01-30T05:57:29.907Z,12.13
2019-01-30T05:59:58.755Z,12.27
2019-01-30T06:02:27.644Z,13.87
2019-01-30T06:04:56.633Z,13.67
2019-01-30T06:07:25.530Z,16.00
2019-01-30T06:09:54.350Z,14.57
2019-01-30T06:12:23.211Z,15.67
2019-01-30T06:14:52.074Z,16.60
2019-01-30T06:17:20.898Z,16.00
2019-01-30T06:19:49.820Z,15.00
2019-01-30T06:22:18.695Z,16.77
2019-01-30T06:24:48.136Z,12.53
2019-01-30T06:27:17.127Z,13.07
2019-01-30T06:29:45.972Z,14.13
2019-01-30T06:32:21.701Z,15.93
2019-01-30T06:34:45.460Z,16.90
2019-01-30T06:37:14.434Z,13.07
2019-01-30T06:39:43.266Z,15.77
2019-01-30T06:42:12.098Z,11.87
2019-01-30T06:44:40.959Z,14.00
2019-01-30T06:47:09.870Z,12.60
2019-01-30T06:49:38.830Z,13.27
2019-01-30T06:52:07.715Z,13.10
2019-01-30T06:54:36.640Z,11.50
2019-01-30T06:57:05.655Z,12.57
2019-01-30T06:59:34.591Z,14.33
2019-01-30T07:02:03.650Z,16.07
2019-01-30T07:04:32.499Z,13.40
2019-01-30T07:07:01.452Z,12.37
2019-01-30T07:09:30.270Z,12.10
2019-01-30T07:11:59.094Z,16.17
2019-01-30T07:14:28.120Z,13.47
2019-01-30T07:16:57.016Z,12.60
2019-01-30T07:19:25.937Z,10.67
2019-01-30T07:21:54.819Z,11.47
2019-01-30T07:24:23.722Z,13.80
2019-01-30T07:26:52.657Z,15.27
2019-01-30T07:29:21.575Z,14.00
2019-01-30T07:31:50.490Z,14.27
2019-01-30T07:34:19.420Z,13.70
2019-01-30T07:36:48.497Z,11.63
2019-01-30T07:39:17.408Z,12.20
2019-01-30T07:41:46.370Z,16.47
2019-01-30T07:44:15.302Z,13.40
2019-01-30T07:46:44.229Z,17.57
2019-01-30T07:49:13.176Z,13.80
2019-01-30T07:51:42.071Z,12.03
2019-01-30T07:54:10.892Z,12.00
2019-01-30T07:56:39.733Z,10.40
2019-01-30T07:59:08.637Z,11.83
2019-01-30T08:01:37.555Z,11.40
2019-01-30T08:04:06.586Z,14.07
2019-01-30T08:06:35.487Z,15.73
2019-01-30T08:09:07.937Z,14.37
2019-01-30T08:11:36.819Z,12.80
2019-01-30T08:14:06.198Z,12.63
2019-01-30T08:16:35.099Z,11.90
2019-01-30T08:19:04.295Z,13.60
2019-01-30T08:21:33.294Z,17.70
2019-01-30T08:24:02.303Z,12.50
2019-01-30T08:26:31.634Z,11.17
2019-01-30T08:29:00.848Z,12.20
2019-01-30T08:31:30.314Z,13.30
2019-01-30T08:33:59.142Z,17.27
2019-01-30T08:36:28.034Z,11.00
2019-01-30T08:38:56.957Z,12.73
2019-01-30T08:41:25.948Z,11.93
2019-01-30T08:43:54.849Z,11.93
2019-01-30T08:46:23.810Z,11.97
2019-01-30T08:48:52.815Z,14.23
2019-01-30T08:51:21.750Z,13.03
2019-01-30T08:53:51.046Z,11.47
2019-01-30T08:56:19.862Z,11.27
2019-01-30T08:58:48.669Z,11.77
2019-01-30T09:01:17.705Z,14.83
2019-01-30T09:03:46.759Z,12.40
2019-01-30T09:06:15.662Z,14.40
2019-01-30T09:08:44.750Z,13.73
2019-01-30T09:11:13.694Z,11.40
2019-01-30T09:13:42.534Z,10.97
2019-01-30T09:16:11.531Z,18.13
2019-01-30T09:18:40.464Z,13.80
2019-01-30T09:21:09.462Z,13.27
2019-01-30T09:23:38.398Z,13.40
2019-01-30T09:26:07.368Z,12.20
2019-01-30T09:28:36.278Z,11.40
2019-01-30T09:31:05.386Z,14.40
2019-01-30T09:33:34.271Z,12.57
2019-01-30T09:36:03.146Z,10.73
2019-01-30T09:38:32.126Z,15.40
2019-01-30T09:41:01.114Z,13.77
2019-01-30T09:43:30.018Z,11.77
2019-01-30T09:45:59.068Z,13.40
2019-01-30T09:48:27.891Z,11.30
2019-01-30T09:50:56.714Z,14.07
2019-01-30T09:53:25.713Z,12.60
2019-01-30T09:55:54.601Z,14.23
2019-01-30T09:58:24.003Z,12.63
2019-01-30T10:00:53.120Z,16.17
2019-01-30T10:03:21.995Z,12.97
2019-01-30T10:05:50.851Z,12.30
2019-01-30T10:08:19.814Z,12.93
2019-01-30T10:10:48.791Z,16.47
2019-01-30T10:13:17.666Z,12.03
2019-01-30T10:15:46.663Z,15.10
2019-01-30T10:18:16.019Z,15.37
2019-01-30T10:20:46.699Z,12.77
2019-01-30T10:23:15.786Z,12.33
2019-01-30T10:25:44.767Z,13.90
2019-01-30T10:28:16.821Z,13.00
2019-01-30T10:30:45.417Z,17.43
2019-01-30T10:33:14.394Z,12.07
2019-01-30T10:35:43.410Z,12.63
2019-01-30T10:38:12.387Z,14.23
2019-01-30T10:40:41.371Z,12.47
2019-01-30T10:43:10.648Z,18.03
2019-01-30T10:45:39.590Z,15.70
2019-01-30T10:48:08.618Z,14.90
2019-01-30T10:50:37.685Z,15.13
2019-01-30T10:53:06.654Z,16.50
2019-01-30T10:55:35.977Z,17.70
2019-01-30T10:58:07.739Z,14.70
2019-01-30T11:00:39.801Z,16.33
2019-01-30T11:03:08.669Z,15.90
2019-01-30T11:05:37.579Z,20.20
2019-01-30T11:08:06.870Z,17.93
2019-01-30T11:10:35.762Z,15.90
2019-01-30T11:13:05.259Z,15.90
2019-01-30T11:15:34.206Z,17.07
2019-01-30T11:18:03.191Z,17.67
2019-01-30T11:20:32.178Z,19.20
2019-01-30T11:23:01.387Z,18.30
2019-01-30T11:25:32.678Z,16.07
2019-01-30T11:28:01.619Z,18.83
2019-01-30T11:30:30.711Z,18.00
2019-01-30T11:32:59.690Z,17.07
2019-01-30T11:35:28.737Z,17.20
2019-01-30T11:37:57.702Z,21.37
2019-01-30T11:40:26.795Z,20.10
2019-01-30T11:42:55.820Z,20.63
2019-01-30T11:45:27.276Z,20.13
2019-01-30T11:47:56.335Z,19.43
2019-01-30T11:50:25.330Z,22.40
2019-01-30T11:52:54.322Z,20.17
2019-01-30T11:55:23.408Z,26.23
2019-01-30T11:57:52.541Z,52.97
2019-01-30T12:00:34.977Z,22.47
2019-01-30T12:03:03.950Z,32.07
2019-01-30T12:05:32.848Z,35.07
2019-01-30T12:08:01.855Z,26.93
2019-01-30T12:10:30.772Z,24.30
2019-01-30T12:12:59.722Z,28.83
2019-01-30T12:15:28.756Z,31.23
2019-01-30T12:17:57.577Z,25.00
2019-01-30T12:20:26.442Z,28.97
2019-01-30T12:22:55.419Z,29.03
2019-01-30T12:25:24.402Z,25.90
2019-01-30T12:27:53.355Z,23.90
2019-01-30T12:30:23.736Z,24.63
2019-01-30T12:32:52.757Z,23.80
2019-01-30T12:35:21.738Z,21.80
2019-01-30T12:37:50.821Z,24.43
2019-01-30T12:40:20.134Z,29.23
2019-01-30T12:42:51.944Z,22.07
2019-01-30T12:45:26.673Z,24.20
2019-01-30T12:47:55.671Z,31.17
2019-01-30T12:50:24.561Z,24.33
2019-01-30T12:52:53.656Z,28.90
2019-01-30T12:55:22.843Z,24.77
2019-01-30T12:57:52.559Z,26.37
2019-01-30T13:00:23.862Z,22.20
2019-01-30T13:02:53.041Z,25.40
2019-01-30T13:05:23.384Z,24.83
2019-01-30T13:07:52.648Z,26.10
2019-01-30T13:10:21.665Z,25.00
2019-01-30T13:12:50.611Z,24.20
2019-01-30T13:15:20.662Z,23.77
2019-01-30T13:17:49.639Z,21.07
2019-01-30T13:20:19.990Z,19.93
2019-01-30T13:22:48.930Z,23.50
2019-01-30T13:25:20.763Z,21.30
2019-01-30T13:27:49.727Z,19.80
2019-01-30T13:30:24.438Z,20.20
2019-01-30T13:32:53.803Z,19.57
2019-01-30T13:35:22.820Z,18.80
2019-01-30T13:37:51.679Z,19.20
2019-01-30T13:40:27.155Z,21.83
2019-01-30T13:42:56.155Z,24.57
2019-01-30T13:45:25.717Z,21.93
2019-01-30T13:47:54.631Z,19.37
2019-01-30T13:50:24.424Z,19.10
2019-01-30T13:52:53.457Z,20.17
2019-01-30T13:55:22.466Z,23.77
2019-01-30T13:57:51.543Z,22.10
2019-01-30T14:00:22.751Z,19.53
2019-01-30T14:02:51.725Z,20.70
2019-01-30T14:05:20.826Z,18.30
2019-01-30T14:07:49.979Z,17.93
2019-01-30T14:10:19.141Z,17.40
2019-01-30T14:12:48.047Z,19.77
2019-01-30T14:15:18.754Z,18.93
2019-01-30T14:17:47.749Z,19.57
2019-01-30T14:20:16.978Z,16.40
2019-01-30T14:22:46.118Z,19.67
2019-01-30T14:25:15.668Z,17.77
2019-01-30T14:27:44.787Z,16.73
2019-01-30T14:30:16.868Z,15.93
2019-01-30T14:32:45.695Z,17.10
2019-01-30T14:35:14.751Z,16.87
2019-01-30T14:37:46.396Z,17.97
2019-01-30T14:40:16.732Z,17.80
2019-01-30T14:42:45.921Z,16.93
2019-01-30T14:45:16.463Z,17.27
2019-01-30T14:47:45.682Z,20.97
2019-01-30T14:50:19.604Z,17.20
2019-01-30T14:52:48.900Z,17.13
2019-01-30T14:55:18.363Z,18.20
2019-01-30T14:57:47.347Z,17.70
2019-01-30T15:00:18.811Z,16.80
2019-01-30T15:02:47.827Z,17.47
2019-01-30T15:05:22.304Z,15.50
2019-01-30T15:07:47.652Z,17.00
2019-01-30T15:10:17.696Z,18.23
2019-01-30T15:12:46.631Z,17.40
2019-01-30T15:15:17.522Z,18.20
2019-01-30T15:17:48.520Z,16.57
2019-01-30T15:20:19.630Z,19.83
2019-01-30T15:22:48.744Z,16.93
2019-01-30T15:25:18.924Z,16.47
2019-01-30T15:27:47.953Z,17.80
2019-01-30T15:30:22.248Z,16.80
2019-01-30T15:32:51.316Z,15.30
2019-01-30T15:35:20.507Z,17.40
2019-01-30T15:37:49.511Z,17.20
2019-01-30T15:40:20.919Z,21.00
2019-01-30T15:42:49.828Z,15.67
2019-01-30T15:45:19.981Z,19.50
2019-01-30T15:47:48.890Z,16.97
2019-01-30T15:50:20.052Z,20.73
2019-01-30T15:52:49.058Z,14.87
2019-01-30T15:55:18.071Z,17.83
2019-01-30T15:57:52.835Z,18.40
2019-01-30T16:00:29.506Z,20.50
2019-01-30T16:02:59.601Z,19.70
2019-01-30T16:05:28.555Z,25.57
2019-01-30T16:07:57.627Z,20.27
2019-01-30T16:10:26.744Z,21.17
2019-01-30T16:12:55.892Z,20.70
2019-01-30T16:15:27.711Z,21.30
2019-01-30T16:17:56.618Z,19.97
2019-01-30T16:20:25.611Z,22.10
2019-01-30T16:22:54.658Z,19.33
2019-01-30T16:25:23.671Z,25.63
2019-01-30T16:27:52.864Z,19.50
2019-01-30T16:30:22.651Z,20.80
2019-01-30T16:32:51.552Z,20.53
2019-01-30T16:35:25.582Z,20.70
2019-01-30T16:37:54.714Z,22.20
2019-01-30T16:40:23.802Z,22.60
2019-01-30T16:42:54.468Z,23.73
2019-01-30T16:45:25.241Z,19.03
2019-01-30T16:47:54.190Z,20.70
2019-01-30T16:50:23.231Z,21.00
2019-01-30T16:52:52.458Z,32.60
2019-01-30T16:55:21.795Z,24.60
2019-01-30T16:57:50.957Z,25.13
2019-01-30T17:00:25.184Z,28.83
2019-01-30T17:02:54.211Z,25.80
2019-01-30T17:05:23.452Z,28.70
2019-01-30T17:07:52.578Z,27.77
2019-01-30T17:10:21.766Z,29.27
2019-01-30T17:12:50.835Z,28.97
2019-01-30T17:15:21.741Z,30.77
2019-01-30T17:17:50.863Z,29.10
2019-01-30T17:20:21.814Z,30.97
2019-01-30T17:22:50.921Z,31.27
2019-01-30T17:25:20.206Z,29.10
2019-01-30T17:27:49.347Z,25.73
2019-01-30T17:30:21.095Z,25.27
2019-01-30T17:35:19.998Z,26.73
2019-01-30T17:37:48.949Z,30.00
2019-01-30T17:40:19.391Z,27.07
2019-01-30T17:42:48.898Z,29.77
2019-01-30T17:45:17.877Z,25.80
2019-01-30T17:47:47.130Z,26.33
2019-01-30T17:50:18.807Z,24.00
2019-01-30T17:52:47.715Z,24.37
2019-01-30T17:55:16.770Z,25.50
2019-01-30T17:57:45.795Z,22.60
2019-01-30T18:00:26.961Z,25.40
2019-01-30T18:02:56.133Z,25.07
2019-01-30T18:05:29.186Z,23.70
2019-01-30T18:07:58.281Z,23.03
2019-01-30T18:10:27.204Z,23.20
2019-01-30T18:12:56.040Z,23.97
2019-01-30T18:15:25.174Z,25.63
2019-01-30T18:17:54.476Z,23.10
2019-01-30T18:20:23.518Z,22.47
2019-01-30T18:22:52.499Z,23.10
2019-01-30T18:25:21.490Z,26.37
2019-01-30T18:27:50.524Z,25.40
2019-01-30T18:30:19.549Z,26.87
2019-01-30T18:32:48.794Z,25.10
2019-01-30T18:35:17.814Z,21.87
2019-01-30T18:37:46.706Z,22.90
2019-01-30T18:40:17.687Z,22.23
2019-01-30T18:42:46.863Z,21.37
2019-01-30T18:45:18.544Z,23.13
2019-01-30T18:47:47.632Z,23.63
2019-01-30T18:50:18.912Z,20.80
2019-01-30T18:52:47.953Z,21.20
2019-01-30T18:55:16.951Z,24.60
2019-01-30T18:57:46.036Z,24.77
2019-01-30T19:00:32.343Z,24.50
2019-01-30T19:03:02.295Z,23.40
2019-01-30T19:05:32.206Z,21.40
2019-01-30T19:08:01.141Z,23.40
2019-01-30T19:10:30.147Z,20.17
2019-01-30T19:12:59.051Z,21.00
2019-01-30T19:15:28.165Z,18.13
2019-01-30T19:17:57.143Z,20.27
2019-01-30T19:20:37.066Z,17.70
2019-01-30T19:23:06.980Z,19.93
2019-01-30T19:25:36.283Z,18.17
2019-01-30T19:28:06.517Z,20.17
2019-01-30T19:30:35.538Z,18.73
2019-01-30T19:33:06.510Z,19.03
2019-01-30T19:35:35.453Z,19.30
2019-01-30T19:38:04.766Z,16.90
2019-01-30T19:40:33.859Z,15.00
2019-01-30T19:43:02.695Z,15.30
2019-01-30T19:45:31.666Z,14.93
2019-01-30T19:48:00.605Z,15.90
2019-01-30T19:50:30.309Z,15.40
2019-01-30T19:52:59.537Z,12.60
2019-01-30T19:55:28.722Z,14.30
2019-01-30T19:57:57.846Z,13.43
2019-01-30T20:00:29.428Z,11.13
2019-01-30T20:02:58.586Z,10.37
2019-01-30T20:05:27.615Z,8.33
2019-01-30T20:08:21.880Z,11.50
2019-01-30T20:10:50.953Z,9.50
2019-01-30T20:13:19.971Z,11.17
2019-01-30T20:15:49.033Z,9.50
2019-01-30T20:18:31.312Z,10.23
2019-01-30T20:20:48.598Z,8.20
2019-01-30T20:23:18.374Z,6.00
2019-01-30T20:25:47.366Z,9.90
2019-01-30T20:28:16.360Z,7.50
2019-01-30T20:30:45.174Z,5.30
2019-01-30T20:33:14.169Z,6.07
2019-01-30T20:35:43.124Z,5.63
2019-01-30T20:38:12.175Z,6.13
2019-01-30T20:40:41.083Z,6.03
2019-01-30T20:43:09.946Z,5.53
2019-01-30T20:45:38.954Z,8.20
2019-01-30T20:48:08.601Z,7.27
2019-01-30T20:50:37.487Z,4.37
2019-01-30T20:53:06.504Z,6.03
2019-01-30T20:55:35.409Z,5.23
2019-01-30T20:58:04.655Z,4.80
2019-01-30T21:00:37.956Z,3.80
2019-01-30T21:03:07.494Z,4.23
2019-01-30T21:05:36.518Z,4.13
2019-01-30T21:08:06.146Z,4.37
2019-01-30T21:10:37.451Z,4.50
2019-01-30T21:13:07.014Z,4.23
2019-01-30T21:15:35.954Z,4.47
2019-01-30T21:18:05.364Z,4.43
2019-01-30T21:20:34.285Z,3.97
2019-01-30T21:23:03.262Z,4.67
2019-01-30T21:25:32.243Z,3.50
2019-01-30T21:28:01.145Z,4.50
2019-01-30T21:30:32.160Z,4.17
2019-01-30T21:33:01.117Z,3.87
2019-01-30T21:35:30.084Z,3.30
2019-01-30T21:37:59.076Z,3.30
2019-01-30T21:40:28.079Z,3.63
2019-01-30T21:42:56.955Z,4.00
2019-01-30T21:45:26.344Z,4.63
2019-01-30T21:47:55.224Z,3.93
2019-01-30T21:50:24.275Z,3.80
2019-01-30T21:52:53.255Z,3.00
2019-01-30T21:55:23.367Z,4.00
2019-01-30T21:57:52.444Z,2.47
2019-01-30T22:00:23.319Z,5.83
2019-01-30T22:02:52.431Z,3.37
2019-01-30T22:05:21.415Z,3.50
2019-01-30T22:08:00.661Z,4.10
2019-01-30T22:10:23.043Z,6.20
2019-01-30T22:12:51.903Z,3.03
2019-01-30T22:15:20.888Z,2.10
2019-01-30T22:17:49.959Z,2.03
2019-01-30T22:20:20.831Z,5.13
2019-01-30T22:22:49.752Z,2.40
2019-01-30T22:25:20.656Z,3.50
2019-01-30T22:27:49.834Z,2.90
2019-01-30T22:30:21.039Z,5.10
2019-01-30T22:32:50.167Z,5.97
2019-01-30T22:35:19.152Z,2.80
2019-01-30T22:37:48.141Z,3.43
2019-01-30T22:40:17.098Z,2.80
2019-01-30T22:42:46.131Z,2.70
2019-01-30T22:45:16.246Z,2.60
2019-01-30T22:47:45.206Z,2.87
2019-01-30T22:50:14.913Z,2.40
2019-01-30T22:52:43.949Z,4.03
2019-01-30T22:55:14.920Z,3.23
2019-01-30T22:57:43.744Z,3.27
2019-01-30T23:00:54.132Z,5.17
2019-01-30T23:03:37.353Z,4.60
2019-01-30T23:06:14.023Z,2.60
2019-01-30T23:08:59.192Z,4.00
2019-01-30T23:11:54.427Z,2.43
2019-01-30T23:14:55.958Z,4.07
2019-01-30T23:17:42.982Z,2.97
2019-01-30T23:20:18.582Z,3.87
2019-01-30T23:23:34.998Z,3.30
2019-01-30T23:26:36.549Z,3.57
2019-01-30T23:29:43.898Z,3.60
2019-01-30T23:32:28.961Z,3.27
2019-01-30T23:35:18.817Z,2.70
2019-01-30T23:38:01.317Z,3.00
2019-01-30T23:40:44.347Z,2.70
2019-01-30T23:43:57.400Z,1.90
2019-01-30T23:47:12.145Z,2.57
2019-01-30T23:50:18.402Z,2.00
2019-01-30T23:53:24.480Z,3.40
2019-01-30T23:56:19.238Z,2.37
2019-01-30T23:59:06.398Z,1.57
